createdAt,value
2023-05-15T00:00:37.577Z,12.20
2023-05-15T00:04:40.609Z,12.20
2023-05-15T00:08:45.229Z,12.10
2023-05-15T00:12:48.127Z,12.20
2023-05-15T00:16:51.195Z,12.10
2023-05-15T00:20:54.010Z,12.10
2023-05-15T00:24:59.514Z,12.10
2023-05-15T00:29:02.363Z,12.10
2023-05-15T00:33:05.398Z,12.00
2023-05-15T00:37:08.528Z,12.00
2023-05-15T00:41:12.917Z,12.00
2023-05-15T00:45:16.500Z,12.00
2023-05-15T00:49:20.440Z,12.00
2023-05-15T00:53:23.398Z,12.00
2023-05-15T00:57:28.703Z,11.90
2023-05-15T01:01:34.503Z,11.90
2023-05-15T01:05:38.660Z,11.90
2023-05-15T01:09:44.711Z,11.90
2023-05-15T01:13:48.829Z,11.90
2023-05-15T01:17:52.607Z,11.80
2023-05-15T01:22:31.018Z,11.80
2023-05-15T01:27:03.157Z,11.70
2023-05-15T01:31:15.645Z,11.60
2023-05-15T01:35:24.393Z,11.60
2023-05-15T01:39:29.604Z,11.60
2023-05-15T01:43:34.718Z,11.60
2023-05-15T01:47:42.337Z,11.60
2023-05-15T01:51:45.632Z,11.60
2023-05-15T01:55:50.591Z,11.50
2023-05-15T01:59:55.089Z,11.50
2023-05-15T02:04:01.259Z,11.50
2023-05-15T02:08:05.459Z,11.50
2023-05-15T02:12:08.849Z,11.40
2023-05-15T02:16:11.780Z,11.30
2023-05-15T02:20:16.090Z,11.30
2023-05-15T02:24:19.191Z,11.10
2023-05-15T02:28:39.890Z,11.20
2023-05-15T02:32:48.297Z,11.20
2023-05-15T02:36:54.138Z,11.20
2023-05-15T02:40:58.937Z,11.30
2023-05-15T02:45:03.823Z,11.30
2023-05-15T02:49:06.795Z,11.30
2023-05-15T02:53:14.327Z,11.40
2023-05-15T02:57:17.197Z,11.30
2023-05-15T03:01:20.011Z,11.30
2023-05-15T03:05:23.294Z,11.30
2023-05-15T03:09:28.134Z,11.30
2023-05-15T03:13:30.952Z,11.40
2023-05-15T03:17:33.989Z,11.30
2023-05-15T03:21:36.827Z,11.40
2023-05-15T03:25:41.074Z,11.30
2023-05-15T03:29:44.104Z,11.20
2023-05-15T03:33:50.662Z,11.20
2023-05-15T03:37:53.507Z,11.20
2023-05-15T03:41:57.639Z,11.20
2023-05-15T03:46:00.516Z,11.20
2023-05-15T03:50:03.530Z,11.20
2023-05-15T03:54:09.506Z,11.10
2023-05-15T03:58:13.678Z,11.20
2023-05-15T04:02:16.526Z,11.20
2023-05-15T04:06:19.294Z,11.20
2023-05-15T04:10:22.172Z,11.10
2023-05-15T04:14:26.380Z,11.20
2023-05-15T04:18:29.230Z,11.10
2023-05-15T04:22:32.243Z,11.30
2023-05-15T04:26:35.282Z,11.20
2023-05-15T04:30:39.434Z,11.20
2023-05-15T04:34:42.485Z,11.20
2023-05-15T04:38:45.335Z,11.30
2023-05-15T04:42:48.116Z,11.40
2023-05-15T04:46:52.270Z,11.40
2023-05-15T04:50:55.107Z,11.50
2023-05-15T04:54:57.919Z,11.50
2023-05-15T04:59:01.012Z,11.60
2023-05-15T05:03:05.433Z,11.60
2023-05-15T05:07:08.303Z,11.60
2023-05-15T05:11:11.149Z,11.70
2023-05-15T05:15:14.098Z,11.80
2023-05-15T05:19:18.329Z,11.90
2023-05-15T05:23:21.164Z,12.00
2023-05-15T05:27:23.951Z,12.10
2023-05-15T05:31:26.762Z,12.20
2023-05-15T05:35:31.162Z,12.30
2023-05-15T05:39:33.972Z,12.30
2023-05-15T05:43:36.857Z,12.30
2023-05-15T05:47:39.756Z,12.40
2023-05-15T05:51:43.989Z,12.50
2023-05-15T05:55:47.139Z,12.50
2023-05-15T05:59:49.945Z,12.60
2023-05-15T06:03:52.852Z,12.60
2023-05-15T06:07:57.877Z,12.70
2023-05-15T06:12:04.490Z,12.70
2023-05-15T06:16:07.751Z,12.80
2023-05-15T06:20:12.065Z,12.90
2023-05-15T06:24:16.261Z,12.90
2023-05-15T06:28:19.075Z,13.00
2023-05-15T06:32:21.924Z,13.20
2023-05-15T06:36:24.804Z,13.30
2023-05-15T06:40:29.015Z,13.40
2023-05-15T06:44:32.071Z,13.50
2023-05-15T06:48:34.943Z,13.50
2023-05-15T06:52:37.744Z,13.70
2023-05-15T06:56:41.933Z,13.80
2023-05-15T07:00:44.777Z,13.80
2023-05-15T07:04:47.602Z,13.70
2023-05-15T07:08:50.547Z,13.60
2023-05-15T07:12:54.730Z,13.50
2023-05-15T07:16:57.561Z,13.60
2023-05-15T07:21:00.448Z,13.70
2023-05-15T07:25:04.153Z,13.90
2023-05-15T07:29:08.661Z,14.20
2023-05-15T07:33:12.363Z,14.30
2023-05-15T07:37:16.864Z,14.40
2023-05-15T07:41:19.935Z,14.40
2023-05-15T07:45:24.426Z,14.70
2023-05-15T07:49:27.459Z,15.10
2023-05-15T07:53:30.247Z,15.80
2023-05-15T07:57:33.067Z,16.00
2023-05-15T08:01:37.630Z,15.50
2023-05-15T08:05:40.483Z,15.20
2023-05-15T08:09:43.445Z,15.20
2023-05-15T08:13:46.254Z,15.20
2023-05-15T08:17:50.514Z,15.20
2023-05-15T08:21:53.307Z,15.30
2023-05-15T08:25:56.126Z,15.50
2023-05-15T08:29:58.889Z,15.90
2023-05-15T08:34:03.049Z,16.20
2023-05-15T08:38:06.160Z,16.70
2023-05-15T08:42:20.956Z,17.10
2023-05-15T08:46:24.798Z,17.80
2023-05-15T08:50:30.362Z,18.60
2023-05-15T08:54:33.453Z,18.60
2023-05-15T08:58:36.338Z,18.70
2023-05-15T09:02:39.810Z,19.00
2023-05-15T09:06:45.663Z,19.80
2023-05-15T09:10:49.493Z,19.60
2023-05-15T09:14:52.236Z,19.30
2023-05-15T09:18:55.377Z,19.60
2023-05-15T09:23:00.507Z,20.00
2023-05-15T09:27:05.137Z,20.30
2023-05-15T09:31:09.078Z,20.30
2023-05-15T09:35:30.167Z,20.50
2023-05-15T09:39:34.759Z,20.10
2023-05-15T09:43:39.245Z,19.80
2023-05-15T09:47:42.079Z,19.10
2023-05-15T09:51:45.354Z,18.60
2023-05-15T09:55:50.052Z,18.50
2023-05-15T09:59:52.850Z,18.50
2023-05-15T10:03:59.941Z,18.80
2023-05-15T10:08:03.256Z,19.30
2023-05-15T10:12:09.341Z,19.80
2023-05-15T10:16:13.984Z,20.30
2023-05-15T10:20:18.101Z,19.80
2023-05-15T10:24:22.292Z,19.90
2023-05-15T10:28:28.098Z,19.90
2023-05-15T10:32:31.164Z,20.60
2023-05-15T10:36:35.121Z,21.30
2023-05-15T10:40:39.206Z,21.20
2023-05-15T10:44:43.407Z,20.80
2023-05-15T10:48:46.365Z,21.00
2023-05-15T10:52:51.922Z,21.00
2023-05-15T10:56:57.213Z,20.80
2023-05-15T11:01:02.112Z,21.20
2023-05-15T11:05:05.783Z,21.40
2023-05-15T11:09:39.460Z,21.70
2023-05-15T11:14:20.652Z,21.60
2023-05-15T11:18:24.812Z,21.80
2023-05-15T11:22:32.585Z,21.90
2023-05-15T11:26:35.455Z,21.90
2023-05-15T11:30:40.011Z,21.30
2023-05-15T11:34:44.558Z,20.80
2023-05-15T11:38:51.782Z,20.30
2023-05-15T11:43:18.097Z,20.20
2023-05-15T11:47:22.004Z,20.30
2023-05-15T11:51:27.615Z,20.90
2023-05-15T11:55:31.857Z,22.70
2023-05-15T11:59:35.224Z,24.70
2023-05-15T12:03:38.331Z,23.80
2023-05-15T12:07:44.480Z,22.00
2023-05-15T12:11:51.726Z,20.70
2023-05-15T12:15:56.257Z,19.90
2023-05-15T12:19:59.416Z,18.90
2023-05-15T12:24:08.125Z,18.40
2023-05-15T12:28:12.760Z,18.20
2023-05-15T12:32:15.868Z,18.20
2023-05-15T12:36:21.327Z,18.30
2023-05-15T12:40:25.625Z,18.50
2023-05-15T12:44:29.321Z,19.00
2023-05-15T12:48:33.069Z,21.00
2023-05-15T12:52:35.892Z,20.70
2023-05-15T12:56:41.339Z,20.40
2023-05-15T13:00:46.019Z,21.70
2023-05-15T13:04:48.921Z,24.80
2023-05-15T13:08:51.692Z,22.60
2023-05-15T13:12:57.821Z,21.90
2023-05-15T13:17:02.726Z,21.50
2023-05-15T13:21:05.922Z,20.60
2023-05-15T13:25:10.099Z,21.40
2023-05-15T13:29:14.247Z,20.50
2023-05-15T13:33:17.043Z,19.50
2023-05-15T13:37:19.788Z,19.40
2023-05-15T13:41:22.563Z,19.30
2023-05-15T13:45:26.682Z,18.70
2023-05-15T13:49:29.576Z,18.20
2023-05-15T13:53:32.316Z,17.60
2023-05-15T13:57:35.165Z,17.30
2023-05-15T14:01:39.281Z,17.10
2023-05-15T14:05:42.053Z,16.80
2023-05-15T14:09:44.884Z,16.70
2023-05-15T14:13:47.716Z,16.70
2023-05-15T14:17:51.911Z,16.50
2023-05-15T14:21:54.785Z,16.40
2023-05-15T14:25:57.534Z,16.30
2023-05-15T14:30:00.344Z,16.20
2023-05-15T14:34:05.492Z,16.00
2023-05-15T14:38:08.465Z,16.00
2023-05-15T14:42:11.985Z,15.90
2023-05-15T14:46:14.965Z,15.30
2023-05-15T14:50:19.327Z,15.40
2023-05-15T14:54:22.169Z,15.60
2023-05-15T14:58:25.061Z,15.70
2023-05-15T15:02:27.921Z,15.90
2023-05-15T15:06:32.150Z,15.70
2023-05-15T15:10:36.711Z,15.50
2023-05-15T15:14:39.502Z,15.50
2023-05-15T15:18:42.647Z,15.30
2023-05-15T15:22:47.132Z,15.10
2023-05-15T15:26:49.933Z,15.00
2023-05-15T15:30:52.760Z,14.90
2023-05-15T15:34:57.158Z,14.90
2023-05-15T15:39:01.317Z,14.80
2023-05-15T15:43:04.117Z,14.90
2023-05-15T15:47:06.991Z,14.80
2023-05-15T15:51:09.953Z,15.10
2023-05-15T15:55:14.085Z,15.30
2023-05-15T15:59:16.892Z,15.20
2023-05-15T16:03:19.814Z,15.40
2023-05-15T16:07:22.697Z,15.30
2023-05-15T16:11:27.060Z,15.20
2023-05-15T16:15:29.852Z,15.00
2023-05-15T16:19:32.717Z,15.10
2023-05-15T16:23:35.983Z,14.80
2023-05-15T16:27:40.154Z,14.90
2023-05-15T16:31:43.123Z,14.80
2023-05-15T16:35:45.938Z,14.70
2023-05-15T16:39:49.055Z,14.70
2023-05-15T16:43:53.138Z,14.70
2023-05-15T16:47:56.324Z,14.70
2023-05-15T16:51:59.131Z,14.80
2023-05-15T16:56:01.968Z,14.80
2023-05-15T17:00:08.800Z,15.00
2023-05-15T17:04:11.782Z,15.00
2023-05-15T17:08:14.785Z,15.00
2023-05-15T17:12:17.595Z,15.00
2023-05-15T17:16:21.974Z,15.00
2023-05-15T17:20:24.893Z,15.00
2023-05-15T17:24:38.548Z,15.10
2023-05-15T17:28:50.574Z,15.30
2023-05-15T17:32:54.818Z,15.20
2023-05-15T17:36:57.680Z,15.20
2023-05-15T17:41:00.403Z,15.20
2023-05-15T17:45:03.304Z,15.20
2023-05-15T17:49:07.504Z,15.20
2023-05-15T17:53:10.328Z,15.10
2023-05-15T17:57:13.145Z,15.00
2023-05-15T18:01:16.007Z,14.80
2023-05-15T18:05:21.550Z,14.70
2023-05-15T18:09:24.847Z,14.60
2023-05-15T18:13:27.727Z,14.60
2023-05-15T18:17:30.562Z,14.50
2023-05-15T18:21:37.010Z,14.40
2023-05-15T18:25:40.700Z,14.20
2023-05-15T18:29:45.563Z,14.10
2023-05-15T18:33:48.505Z,13.90
2023-05-15T18:37:52.717Z,13.80
2023-05-15T18:41:55.583Z,13.40
2023-05-15T18:45:58.390Z,13.30
2023-05-15T18:50:01.148Z,13.20
2023-05-15T18:54:05.369Z,13.20
2023-05-15T18:58:08.732Z,13.20
2023-05-15T19:02:11.589Z,13.20
2023-05-15T19:06:19.777Z,13.00
2023-05-15T19:10:24.524Z,12.90
2023-05-15T19:14:27.430Z,12.90
2023-05-15T19:18:30.231Z,12.80
2023-05-15T19:22:33.204Z,12.90
2023-05-15T19:26:37.380Z,12.90
2023-05-15T19:30:40.167Z,12.90
2023-05-15T19:34:42.968Z,12.80
2023-05-15T19:38:45.951Z,12.70
2023-05-15T19:42:50.051Z,12.50
2023-05-15T19:46:54.471Z,12.40
2023-05-15T19:50:57.482Z,12.30
2023-05-15T19:55:00.288Z,12.30
2023-05-15T19:59:04.434Z,12.20
2023-05-15T20:03:07.418Z,12.30
2023-05-15T20:07:10.314Z,12.20
2023-05-15T20:11:13.136Z,12.10
2023-05-15T20:15:18.128Z,12.10
2023-05-15T20:19:24.286Z,12.00
2023-05-15T20:23:27.249Z,12.00
2023-05-15T20:27:30.065Z,12.00
2023-05-15T20:31:34.559Z,11.90
2023-05-15T20:35:38.744Z,11.90
2023-05-15T20:39:41.587Z,11.90
2023-05-15T20:43:44.400Z,11.80
2023-05-15T20:47:48.629Z,11.70
2023-05-15T20:51:51.480Z,11.70
2023-05-15T20:55:54.268Z,11.60
2023-05-15T20:59:57.044Z,11.60
2023-05-15T21:04:01.303Z,11.60
2023-05-15T21:08:04.486Z,11.60
2023-05-15T21:12:08.215Z,11.60
2023-05-15T21:16:10.986Z,11.70
2023-05-15T21:20:15.238Z,11.80
2023-05-15T21:24:18.114Z,11.80
2023-05-15T21:28:21.060Z,11.70
2023-05-15T21:32:24.154Z,11.70
2023-05-15T21:36:28.402Z,11.80
2023-05-15T21:40:31.236Z,11.70
2023-05-15T21:44:34.377Z,11.70
2023-05-15T21:48:37.136Z,11.70
2023-05-15T21:52:41.259Z,11.70
2023-05-15T21:56:43.992Z,11.70
2023-05-15T22:00:46.770Z,11.80
2023-05-15T22:04:49.567Z,11.80
2023-05-15T22:08:53.716Z,11.80
2023-05-15T22:13:02.598Z,11.70
2023-05-15T22:17:05.876Z,11.70
2023-05-15T22:21:08.620Z,11.80
2023-05-15T22:25:12.987Z,11.80
2023-05-15T22:29:15.832Z,11.80
2023-05-15T22:33:18.645Z,11.90
2023-05-15T22:37:21.775Z,11.90
2023-05-15T22:41:25.953Z,11.80
2023-05-15T22:45:28.662Z,11.80
2023-05-15T22:49:31.384Z,11.90
2023-05-15T22:53:34.622Z,11.90
2023-05-15T22:57:38.729Z,11.90
2023-05-15T23:01:41.615Z,11.90
2023-05-15T23:05:45.187Z,11.90
2023-05-15T23:09:47.933Z,12.00
2023-05-15T23:13:52.063Z,11.90
2023-05-15T23:17:54.826Z,12.00
2023-05-15T23:21:57.649Z,12.00
2023-05-15T23:26:00.408Z,12.00
2023-05-15T23:30:04.988Z,11.90
2023-05-15T23:34:08.220Z,11.80
2023-05-15T23:38:10.995Z,11.90
2023-05-15T23:42:13.724Z,11.80
2023-05-15T23:46:18.367Z,11.70
2023-05-15T23:50:21.659Z,11.70
2023-05-15T23:54:24.421Z,11.70
2023-05-15T23:58:27.138Z,11.80
